PWSweather.com
Personal Weather Stations
Station Observations
KMOHERMA2
Stony Hill, Hermann, MO 65041

Stony HillHermann, MO 65041

Lat: 38.527, Lon: -91.414

Elevation: 896

Station Type: Davis Vantage Pro 2

High Low Average
Temperature 41.7°F5.4°C 31.0°F-0.6°C 35.0°F1.7°C
Dew Point 40.5°F4.7°C 23.9°F-4.5°C 31.6°F-0.2°C
Winds 21.0 mph 33.8 kmh Calm Calm 3.0 mph WSW4.8 kmh WSW
Wind Gusts 28.0 mph45.1 kmh -- 2.0 mph3.2 kmh
Humidity 95% 73% 87%
Pressure 30.26 in1024.7 mb 29.80 in1009.1 mb -
Precipitation 1.20 in30.5 mm - -
Hour Temp Dew Point Humidity Winds Wind Gusts Pressure Precip Precip Rate Daily Precip Total
07:10 AM 41.7°F5.4°C 40.5°F4.7°C 95% Calm Calm -- 29.80 in1009.1 mb 0.01 in0.3 mm 0.06 in1.5 mm 0.82 in20.8 mm
07:15 AM 41.6°F5.3°C 40.3°F4.6°C 95% Calm Calm -- 29.80 in1009.1 mb 0.02 in0.5 mm 0.12 in3.0 mm 0.83 in21.1 mm
07:20 AM 41.4°F5.2°C 40.1°F4.5°C 95% Calm Calm 10.0 mph16.1 kmh 29.81 in1009.5 mb 0.03 in0.8 mm 0.12 in3.0 mm 0.84 in21.3 mm
07:25 AM 41.3°F5.2°C 40.1°F4.5°C 95% Calm Calm -- 29.80 in1009.1 mb 0.04 in1.0 mm 0.12 in3.0 mm 0.85 in21.6 mm
07:30 AM 41.3°F5.2°C 40.1°F4.5°C 95% Calm Calm -- 29.81 in1009.5 mb 0.04 in1.0 mm 0.00 in0.0 mm 0.85 in21.6 mm
07:35 AM 41.4°F5.2°C 40.1°F4.5°C 95% Calm Calm -- 29.82 in1009.8 mb 0.04 in1.0 mm 0.00 in0.0 mm 0.85 in21.6 mm
07:40 AM 41.3°F5.2°C 40.1°F4.5°C 95% 11.0 mph NW17.7 kmh NW -- 29.82 in1009.8 mb 0.05 in1.3 mm 0.12 in3.0 mm 0.86 in21.8 mm
07:45 AM 41.2°F5.1°C 39.9°F4.4°C 95% Calm Calm 14.0 mph22.5 kmh 29.82 in1009.8 mb 0.06 in1.5 mm 0.12 in3.0 mm 0.87 in22.1 mm
07:50 AM 41.1°F5.1°C 39.9°F4.4°C 95% 3.0 mph N4.8 kmh N -- 29.82 in1009.8 mb 0.07 in1.8 mm 0.12 in3.0 mm 0.88 in22.4 mm
07:55 AM 41.0°F5.0°C 39.7°F4.3°C 95% 4.0 mph N6.4 kmh N -- 29.83 in1010.2 mb 0.08 in2.0 mm 0.12 in3.0 mm 0.89 in22.6 mm
08:00 AM 40.8°F4.9°C 39.6°F4.2°C 95% 2.0 mph NW3.2 kmh NW -- 29.84 in1010.5 mb 0.09 in2.3 mm 0.01 in0.3 mm 0.90 in22.9 mm
08:05 AM 40.7°F4.8°C 39.4°F4.1°C 95% 4.0 mph NW6.4 kmh NW -- 29.84 in1010.5 mb 0.09 in2.3 mm 0.00 in0.0 mm 0.90 in22.9 mm
08:10 AM 40.5°F4.7°C 39.2°F4.0°C 95% 9.0 mph NW14.5 kmh NW 17.0 mph27.4 kmh 29.84 in1010.5 mb 0.09 in2.3 mm 0.00 in0.0 mm 0.91 in23.1 mm
08:15 AM 40.2°F4.6°C 39.0°F3.9°C 95% 5.0 mph N8.0 kmh N -- 29.85 in1010.8 mb 0.09 in2.3 mm 0.00 in0.0 mm 0.92 in23.4 mm
08:20 AM 39.9°F4.4°C 38.7°F3.7°C 95% 8.0 mph N12.9 kmh N -- 29.86 in1011.2 mb 0.09 in2.3 mm 0.00 in0.0 mm 0.93 in23.6 mm
08:25 AM 39.6°F4.2°C 38.3°F3.5°C 95% Calm Calm -- 29.86 in1011.2 mb 0.09 in2.3 mm 0.00 in0.0 mm 0.94 in23.9 mm
08:30 AM 39.5°F4.2°C 38.3°F3.5°C 95% 11.0 mph NE17.7 kmh NE -- 29.85 in1010.8 mb 0.11 in2.8 mm 0.24 in6.1 mm 0.96 in24.4 mm
08:35 AM 39.3°F4.1°C 38.1°F3.4°C 95% 10.0 mph NE16.1 kmh NE 19.0 mph30.6 kmh 29.81 in1009.5 mb 0.14 in3.6 mm 0.36 in9.1 mm 0.99 in25.1 mm
08:40 AM 39.1°F3.9°C 37.8°F3.2°C 95% Calm Calm -- 29.83 in1010.2 mb 0.17 in4.3 mm 0.36 in9.1 mm 1.03 in26.2 mm
08:45 AM 39.1°F3.9°C 37.8°F3.2°C 95% 1.0 mph ENE1.6 kmh ENE -- 29.82 in1009.8 mb 0.18 in4.6 mm 0.12 in3.0 mm 1.05 in26.7 mm
08:50 AM 39.1°F3.9°C 37.8°F3.2°C 95% 3.0 mph ENE4.8 kmh ENE -- 29.81 in1009.5 mb 0.18 in4.6 mm 0.00 in0.0 mm 1.06 in26.9 mm
08:55 AM 39.2°F4.0°C 37.9°F3.3°C 95% Calm Calm -- 29.82 in1009.8 mb 0.18 in4.6 mm 0.00 in0.0 mm 1.07 in27.2 mm
09:00 AM 39.2°F4.0°C 37.9°F3.3°C 95% 7.0 mph NE11.3 kmh NE 12.0 mph19.3 kmh 29.83 in1010.2 mb 0.18 in4.6 mm 0.00 in0.0 mm 1.08 in27.4 mm
09:05 AM 39.2°F4.0°C 37.9°F3.3°C 95% Calm Calm -- 29.84 in1010.5 mb 0.19 in4.8 mm 0.12 in3.0 mm 1.09 in27.7 mm
09:10 AM 39.2°F4.0°C 37.9°F3.3°C 95% 8.0 mph NNE12.9 kmh NNE -- 29.85 in1010.8 mb 0.18 in4.6 mm 0.00 in0.0 mm 1.09 in27.7 mm
09:15 AM 39.2°F4.0°C 37.9°F3.3°C 95% 3.0 mph NNE4.8 kmh NNE -- 29.84 in1010.5 mb 0.17 in4.3 mm 0.00 in0.0 mm 1.09 in27.7 mm
09:20 AM 39.2°F4.0°C 37.9°F3.3°C 95% Calm Calm -- 29.85 in1010.8 mb 0.16 in4.1 mm 0.00 in0.0 mm 1.09 in27.7 mm
09:25 AM 39.2°F4.0°C 37.9°F3.3°C 95% Calm Calm 10.0 mph16.1 kmh 29.85 in1010.8 mb 0.16 in4.1 mm 0.00 in0.0 mm 1.10 in27.9 mm
09:30 AM 39.0°F3.9°C 37.8°F3.2°C 95% 3.0 mph NNE4.8 kmh NNE -- 29.85 in1010.8 mb 0.14 in3.6 mm 0.00 in0.0 mm 1.10 in27.9 mm
09:35 AM 38.8°F3.8°C 37.6°F3.1°C 95% 12.0 mph N19.3 kmh N -- 29.85 in1010.8 mb 0.11 in2.8 mm 0.00 in0.0 mm 1.10 in27.9 mm
09:40 AM 38.4°F3.6°C 37.2°F2.9°C 95% 4.0 mph NNE6.4 kmh NNE -- 29.85 in1010.8 mb 0.07 in1.8 mm 0.00 in0.0 mm 1.10 in27.9 mm
09:45 AM 38.2°F3.4°C 36.9°F2.7°C 95% 12.0 mph NW19.3 kmh NW -- 29.86 in1011.2 mb 0.05 in1.3 mm 0.00 in0.0 mm 1.10 in27.9 mm
09:50 AM 38.2°F3.4°C 36.9°F2.7°C 95% 5.0 mph NNE8.0 kmh NNE 19.0 mph30.6 kmh 29.86 in1011.2 mb 0.04 in1.0 mm 0.00 in0.0 mm 1.10 in27.9 mm
09:55 AM 38.1°F3.4°C 36.9°F2.7°C 95% 2.0 mph N3.2 kmh N -- 29.87 in1011.5 mb 0.03 in0.8 mm 0.00 in0.0 mm 1.10 in27.9 mm
10:00 AM 38.1°F3.4°C 36.9°F2.7°C 95% 6.0 mph NNE9.7 kmh NNE -- 29.87 in1011.5 mb 0.02 in0.5 mm 0.00 in0.0 mm 1.10 in27.9 mm
10:05 AM 38.0°F3.3°C 36.7°F2.6°C 95% 7.0 mph NNE11.3 kmh NNE -- 29.87 in1011.5 mb 0.01 in0.3 mm 0.00 in0.0 mm 1.10 in27.9 mm
10:10 AM 37.9°F3.3°C 36.7°F2.6°C 95% 13.0 mph NNE20.9 kmh NNE -- 29.87 in1011.5 mb 0.01 in0.3 mm 0.00 in0.0 mm 1.10 in27.9 mm
10:15 AM 37.9°F3.3°C 36.7°F2.6°C 95% Calm Calm 17.0 mph27.4 kmh 29.87 in1011.5 mb 0.01 in0.3 mm 0.00 in0.0 mm 1.10 in27.9 mm
10:20 AM 37.7°F3.2°C 36.5°F2.5°C 95% 17.0 mph NNE27.4 kmh NNE -- 29.88 in1011.9 mb 0.02 in0.5 mm 0.12 in3.0 mm 1.11 in28.2 mm
10:25 AM 37.6°F3.1°C 36.3°F2.4°C 95% 7.0 mph NE11.3 kmh NE -- 29.87 in1011.5 mb 0.02 in0.5 mm 0.00 in0.0 mm 1.12 in28.4 mm
10:30 AM 37.5°F3.1°C 36.3°F2.4°C 95% Calm Calm -- 29.88 in1011.9 mb 0.02 in0.5 mm 0.00 in0.0 mm 1.12 in28.4 mm
10:35 AM 37.3°F2.9°C 36.0°F2.2°C 95% 3.0 mph N4.8 kmh N -- 29.89 in1012.2 mb 0.02 in0.5 mm 0.00 in0.0 mm 1.12 in28.4 mm
10:40 AM 37.2°F2.9°C 36.0°F2.2°C 95% 5.0 mph NW8.0 kmh NW 12.0 mph19.3 kmh 29.90 in1012.5 mb 0.02 in0.5 mm 0.00 in0.0 mm 1.12 in28.4 mm
10:45 AM 37.1°F2.8°C 35.8°F2.1°C 95% 9.0 mph NW14.5 kmh NW -- 29.90 in1012.5 mb 0.03 in0.8 mm 0.12 in3.0 mm 1.13 in28.7 mm
10:50 AM 36.8°F2.7°C 35.6°F2.0°C 95% 9.0 mph N14.5 kmh N -- 29.90 in1012.5 mb 0.03 in0.8 mm 0.00 in0.0 mm 1.13 in28.7 mm
10:55 AM 36.6°F2.6°C 35.4°F1.9°C 95% Calm Calm -- 29.91 in1012.9 mb 0.03 in0.8 mm 0.00 in0.0 mm 1.13 in28.7 mm
11:00 AM 36.3°F2.4°C 35.1°F1.7°C 95% Calm Calm -- 29.91 in1012.9 mb 0.04 in1.0 mm 0.01 in0.3 mm 1.14 in29.0 mm
11:05 AM 36.1°F2.3°C 34.9°F1.6°C 95% Calm Calm 4.0 mph6.4 kmh 29.92 in1013.2 mb 0.04 in1.0 mm 0.00 in0.0 mm 1.14 in29.0 mm
11:10 AM 35.9°F2.2°C 34.7°F1.5°C 95% Calm Calm -- 29.92 in1013.2 mb 0.04 in1.0 mm 0.00 in0.0 mm 1.14 in29.0 mm
11:15 AM 35.7°F2.1°C 34.5°F1.4°C 95% 16.0 mph NW25.7 kmh NW -- 29.92 in1013.2 mb 0.05 in1.3 mm 0.12 in3.0 mm 1.15 in29.2 mm
11:20 AM 35.6°F2.0°C 34.3°F1.3°C 95% 7.0 mph NW11.3 kmh NW -- 29.93 in1013.5 mb 0.04 in1.0 mm 0.00 in0.0 mm 1.15 in29.2 mm
11:25 AM 35.6°F2.0°C 34.3°F1.3°C 95% 14.0 mph NW22.5 kmh NW -- 29.94 in1013.9 mb 0.03 in0.8 mm 0.00 in0.0 mm 1.15 in29.2 mm
11:30 AM 35.5°F1.9°C 34.2°F1.2°C 95% 10.0 mph NW16.1 kmh NW 19.0 mph30.6 kmh 29.95 in1014.2 mb 0.04 in1.0 mm 0.12 in3.0 mm 1.16 in29.5 mm
11:35 AM 35.5°F1.9°C 34.2°F1.2°C 95% 11.0 mph NW17.7 kmh NW -- 29.95 in1014.2 mb 0.04 in1.0 mm 0.00 in0.0 mm 1.16 in29.5 mm
11:40 AM 35.4°F1.9°C 34.2°F1.2°C 95% 16.0 mph NW25.7 kmh NW -- 29.95 in1014.2 mb 0.05 in1.3 mm 0.12 in3.0 mm 1.17 in29.7 mm
11:45 AM 35.3°F1.8°C 34.0°F1.1°C 95% 12.0 mph NW19.3 kmh NW -- 29.95 in1014.2 mb 0.04 in1.0 mm 0.00 in0.0 mm 1.17 in29.7 mm
11:50 AM 35.3°F1.8°C 34.0°F1.1°C 95% 14.0 mph N22.5 kmh N -- 29.95 in1014.2 mb 0.05 in1.3 mm 0.12 in3.0 mm 1.18 in30.0 mm
11:55 AM 35.2°F1.8°C 34.0°F1.1°C 95% 13.0 mph NW20.9 kmh NW 23.0 mph37.0 kmh 29.96 in1014.6 mb 0.05 in1.3 mm 0.00 in0.0 mm 1.18 in30.0 mm
12:00 PM 35.0°F1.7°C 33.8°F1.0°C 95% 20.0 mph WNW32.2 kmh WNW -- 29.97 in1014.9 mb 0.04 in1.0 mm 0.00 in0.0 mm 1.18 in30.0 mm
12:05 PM 34.8°F1.6°C 33.6°F0.9°C 95% 15.0 mph NW24.1 kmh NW -- 29.98 in1015.2 mb 0.04 in1.0 mm 0.00 in0.0 mm 1.18 in30.0 mm
12:10 PM 34.6°F1.4°C 33.3°F0.7°C 95% 12.0 mph NW19.3 kmh NW -- 29.98 in1015.2 mb 0.04 in1.0 mm 0.00 in0.0 mm 1.18 in30.0 mm
12:15 PM 34.4°F1.3°C 33.1°F0.6°C 95% 12.0 mph NW19.3 kmh NW -- 29.98 in1015.2 mb 0.03 in0.8 mm 0.00 in0.0 mm 1.18 in30.0 mm
12:20 PM 34.2°F1.2°C 32.9°F0.5°C 95% 16.0 mph W25.7 kmh W 24.0 mph38.6 kmh 30.00 in1015.9 mb 0.04 in1.0 mm 0.12 in3.0 mm 1.19 in30.2 mm
12:25 PM 34.0°F1.1°C 32.4°F0.2°C 94% 7.0 mph NW11.3 kmh NW -- 29.99 in1015.6 mb 0.04 in1.0 mm 0.00 in0.0 mm 1.19 in30.2 mm
12:30 PM 33.9°F1.1°C 32.7°F0.4°C 95% 18.0 mph NW29.0 kmh NW -- 29.99 in1015.6 mb 0.03 in0.8 mm 0.00 in0.0 mm 1.19 in30.2 mm
12:35 PM 33.7°F0.9°C 32.4°F0.2°C 95% 14.0 mph N22.5 kmh N -- 29.99 in1015.6 mb 0.03 in0.8 mm 0.00 in0.0 mm 1.19 in30.2 mm
12:40 PM 33.5°F0.8°C 32.2°F0.1°C 95% 19.0 mph NW30.6 kmh NW -- 29.99 in1015.6 mb 0.02 in0.5 mm 0.00 in0.0 mm 1.19 in30.2 mm
12:45 PM 33.4°F0.8°C 31.8°F-0.1°C 94% 18.0 mph NW29.0 kmh NW 25.0 mph40.2 kmh 29.99 in1015.6 mb 0.03 in0.8 mm 0.12 in3.0 mm 1.20 in30.5 mm
12:50 PM 33.3°F0.7°C 31.6°F-0.2°C 94% 14.0 mph NNE22.5 kmh NNE -- 30.00 in1015.9 mb 0.02 in0.5 mm 0.00 in0.0 mm 1.20 in30.5 mm
12:55 PM 33.2°F0.7°C 31.6°F-0.2°C 94% 14.0 mph NW22.5 kmh NW -- 30.00 in1015.9 mb 0.02 in0.5 mm 0.00 in0.0 mm 1.20 in30.5 mm
01:00 PM 33.0°F0.6°C 31.5°F-0.3°C 94% 13.0 mph N20.9 kmh N -- 30.00 in1015.9 mb 0.02 in0.5 mm 0.00 in0.0 mm 1.20 in30.5 mm
01:05 PM 32.9°F0.5°C 31.3°F-0.4°C 94% 18.0 mph NW29.0 kmh NW -- 30.00 in1015.9 mb 0.02 in0.5 mm 0.00 in0.0 mm 1.20 in30.5 mm
01:10 PM 32.8°F0.4°C 31.1°F-0.5°C 94% 9.0 mph NNE14.5 kmh NNE 24.0 mph38.6 kmh 30.00 in1015.9 mb 0.02 in0.5 mm 0.00 in0.0 mm 1.20 in30.5 mm
01:15 PM 32.7°F0.4°C 31.1°F-0.5°C 94% 13.0 mph NW20.9 kmh NW -- 29.99 in1015.6 mb 0.02 in0.5 mm 0.00 in0.0 mm 1.20 in30.5 mm
01:20 PM 33.1°F0.6°C 31.8°F-0.1°C 95% 10.0 mph NW16.1 kmh NW -- 29.99 in1015.6 mb 0.01 in0.3 mm 0.00 in0.0 mm 1.20 in30.5 mm
01:25 PM 33.4°F0.8°C 31.8°F-0.1°C 94% 15.0 mph NW24.1 kmh NW -- 29.99 in1015.6 mb 0.01 in0.3 mm 0.00 in0.0 mm 1.20 in30.5 mm
01:30 PM 33.4°F0.8°C 31.8°F-0.1°C 94% 10.0 mph NW16.1 kmh NW -- 30.00 in1015.9 mb 0.01 in0.3 mm 0.00 in0.0 mm 1.20 in30.5 mm
01:35 PM 33.6°F0.9°C 32.0°F0.0°C 94% 14.0 mph NW22.5 kmh NW 22.0 mph35.4 kmh 29.99 in1015.6 mb 0.01 in0.3 mm 0.00 in0.0 mm 1.20 in30.5 mm
01:40 PM 33.6°F0.9°C 32.0°F0.0°C 94% 12.0 mph NW19.3 kmh NW -- 29.99 in1015.6 mb 0.01 in0.3 mm 0.00 in0.0 mm 1.20 in30.5 mm
01:45 PM 33.7°F0.9°C 32.0°F0.0°C 94% 21.0 mph WNW33.8 kmh WNW -- 30.00 in1015.9 mb 0.00 in0.0 mm 0.00 in0.0 mm 1.20 in30.5 mm
01:50 PM 33.8°F1.0°C 32.2°F0.1°C 94% 4.0 mph WNW6.4 kmh WNW -- 30.00 in1015.9 mb 0.00 in0.0 mm 0.00 in0.0 mm 1.20 in30.5 mm
01:55 PM 33.6°F0.9°C 32.0°F0.0°C 94% 11.0 mph NW17.7 kmh NW -- 30.00 in1015.9 mb 0.00 in0.0 mm 0.00 in0.0 mm 1.20 in30.5 mm
02:00 PM 33.7°F0.9°C 32.0°F0.0°C 94% Calm Calm 28.0 mph45.1 kmh 30.00 in1015.9 mb 0.00 in0.0 mm 0.00 in0.0 mm 1.20 in30.5 mm
02:05 PM 34.0°F1.1°C 32.4°F0.2°C 94% Calm Calm -- 30.00 in1015.9 mb 0.00 in0.0 mm 0.00 in0.0 mm 1.20 in30.5 mm
02:10 PM 33.9°F1.1°C 32.4°F0.2°C 94% Calm Calm -- 30.01 in1016.3 mb 0.00 in0.0 mm 0.00 in0.0 mm 1.20 in30.5 mm
02:15 PM 33.8°F1.0°C 32.2°F0.1°C 94% 1.0 mph NW1.6 kmh NW -- 30.01 in1016.3 mb 0.00 in0.0 mm 0.00 in0.0 mm 1.20 in30.5 mm
02:20 PM 33.8°F1.0°C 32.2°F0.1°C 94% Calm Calm -- 30.02 in1016.6 mb 0.00 in0.0 mm 0.00 in0.0 mm 1.20 in30.5 mm
02:25 PM 34.0°F1.1°C 32.2°F0.1°C 93% Calm Calm 1.0 mph1.6 kmh 30.01 in1016.3 mb 0.00 in0.0 mm 0.00 in0.0 mm 1.20 in30.5 mm
02:30 PM 33.9°F1.1°C 32.2°F0.1°C 93% Calm Calm -- 30.02 in1016.6 mb 0.00 in0.0 mm 0.00 in0.0 mm 1.20 in30.5 mm
02:35 PM 33.8°F1.0°C 32.0°F0.0°C 93% Calm Calm -- 30.02 in1016.6 mb 0.00 in0.0 mm 0.00 in0.0 mm 1.20 in30.5 mm
02:40 PM 33.8°F1.0°C 32.0°F0.0°C 93% Calm Calm -- 30.02 in1016.6 mb 0.00 in0.0 mm 0.00 in0.0 mm 1.20 in30.5 mm
02:45 PM 33.8°F1.0°C 32.0°F0.0°C 93% Calm Calm -- 30.02 in1016.6 mb 0.00 in0.0 mm 0.00 in0.0 mm 1.20 in30.5 mm
02:50 PM 33.8°F1.0°C 32.0°F0.0°C 93% Calm Calm 1.0 mph1.6 kmh 30.02 in1016.6 mb 0.00 in0.0 mm 0.00 in0.0 mm 1.20 in30.5 mm
02:55 PM 33.7°F0.9°C 31.8°F-0.1°C 93% Calm Calm -- 30.02 in1016.6 mb 0.00 in0.0 mm 0.00 in0.0 mm 1.20 in30.5 mm
03:00 PM 33.9°F1.1°C 32.2°F0.1°C 93% Calm Calm -- 30.04 in1017.3 mb 0.00 in0.0 mm 0.00 in0.0 mm 1.20 in30.5 mm
03:05 PM 33.9°F1.1°C 32.2°F0.1°C 93% Calm Calm -- 30.04 in1017.3 mb 0.00 in0.0 mm 0.00 in0.0 mm 1.20 in30.5 mm
03:10 PM 34.1°F1.2°C 32.4°F0.2°C 93% Calm Calm -- 30.04 in1017.3 mb 0.00 in0.0 mm 0.00 in0.0 mm 1.20 in30.5 mm
03:15 PM 34.3°F1.3°C 32.5°F0.3°C 93% Calm Calm 15.0 mph24.1 kmh 30.04 in1017.3 mb 0.00 in0.0 mm 0.00 in0.0 mm 1.20 in30.5 mm
03:20 PM 34.3°F1.3°C 32.5°F0.3°C 93% Calm Calm -- 30.04 in1017.3 mb 0.00 in0.0 mm 0.00 in0.0 mm 1.20 in30.5 mm
03:25 PM 34.2°F1.2°C 32.4°F0.2°C 93% Calm Calm -- 30.04 in1017.3 mb 0.00 in0.0 mm 0.00 in0.0 mm 1.20 in30.5 mm
03:30 PM 34.2°F1.2°C 32.4°F0.2°C 93% Calm Calm -- 30.04 in1017.3 mb 0.00 in0.0 mm 0.00 in0.0 mm 1.20 in30.5 mm
03:35 PM 34.1°F1.2°C 32.4°F0.2°C 93% Calm Calm -- 30.05 in1017.6 mb 0.00 in0.0 mm 0.00 in0.0 mm 1.20 in30.5 mm
03:40 PM 34.1°F1.2°C 32.0°F0.0°C 92% Calm Calm -- 30.05 in1017.6 mb 0.00 in0.0 mm 0.00 in0.0 mm 1.20 in30.5 mm
03:45 PM 34.1°F1.2°C 32.0°F0.0°C 92% Calm Calm -- 30.05 in1017.6 mb 0.00 in0.0 mm 0.00 in0.0 mm 1.20 in30.5 mm
03:50 PM 34.1°F1.2°C 32.0°F0.0°C 92% Calm Calm -- 30.06 in1017.9 mb 0.00 in0.0 mm 0.00 in0.0 mm 1.20 in30.5 mm
03:55 PM 34.0°F1.1°C 31.8°F-0.1°C 92% Calm Calm -- 30.05 in1017.6 mb 0.00 in0.0 mm 0.00 in0.0 mm 1.20 in30.5 mm
04:00 PM 34.1°F1.2°C 31.8°F-0.1°C 91% Calm Calm -- 30.06 in1017.9 mb 0.00 in0.0 mm 0.00 in0.0 mm 1.20 in30.5 mm
04:05 PM 34.3°F1.3°C 32.2°F0.1°C 92% Calm Calm 9.0 mph14.5 kmh 30.06 in1017.9 mb 0.00 in0.0 mm 0.00 in0.0 mm 1.20 in30.5 mm
04:10 PM 34.3°F1.3°C 32.0°F0.0°C 91% Calm Calm -- 30.07 in1018.3 mb 0.00 in0.0 mm 0.00 in0.0 mm 1.20 in30.5 mm
04:15 PM 34.4°F1.3°C 32.0°F0.0°C 91% Calm Calm -- 30.07 in1018.3 mb 0.00 in0.0 mm 0.00 in0.0 mm 1.20 in30.5 mm
04:20 PM 34.6°F1.4°C 32.2°F0.1°C 91% Calm Calm -- 30.07 in1018.3 mb 0.00 in0.0 mm 0.00 in0.0 mm 1.20 in30.5 mm
04:25 PM 34.7°F1.5°C 32.4°F0.2°C 91% Calm Calm -- 30.07 in1018.3 mb 0.00 in0.0 mm 0.00 in0.0 mm 1.20 in30.5 mm
04:30 PM 34.7°F1.5°C 32.0°F0.0°C 90% Calm Calm 1.0 mph1.6 kmh 30.07 in1018.3 mb 0.00 in0.0 mm 0.00 in0.0 mm 1.20 in30.5 mm
04:35 PM 34.7°F1.5°C 32.0°F0.0°C 90% Calm Calm -- 30.07 in1018.3 mb 0.00 in0.0 mm 0.00 in0.0 mm 1.20 in30.5 mm
04:40 PM 34.8°F1.6°C 32.2°F0.1°C 90% Calm Calm -- 30.07 in1018.3 mb 0.00 in0.0 mm 0.00 in0.0 mm 1.20 in30.5 mm
04:45 PM 34.9°F1.6°C 32.2°F0.1°C 90% Calm Calm -- 30.07 in1018.3 mb 0.00 in0.0 mm 0.00 in0.0 mm 1.20 in30.5 mm
04:50 PM 35.1°F1.7°C 32.4°F0.2°C 90% Calm Calm -- 30.08 in1018.6 mb 0.00 in0.0 mm 0.00 in0.0 mm 1.20 in30.5 mm
04:55 PM 35.2°F1.8°C 32.4°F0.2°C 89% 9.0 mph N14.5 kmh N 4.0 mph6.4 kmh 30.08 in1018.6 mb 0.00 in0.0 mm 0.00 in0.0 mm 1.20 in30.5 mm
05:00 PM 35.3°F1.8°C 32.4°F0.2°C 89% Calm Calm -- 30.09 in1019.0 mb 0.00 in0.0 mm 0.00 in0.0 mm 1.20 in30.5 mm
05:05 PM 35.4°F1.9°C 32.2°F0.1°C 88% Calm Calm -- 30.09 in1019.0 mb 0.00 in0.0 mm 0.00 in0.0 mm 1.20 in30.5 mm
05:10 PM 35.6°F2.0°C 32.4°F0.2°C 88% Calm Calm -- 30.09 in1019.0 mb 0.00 in0.0 mm 0.00 in0.0 mm 1.20 in30.5 mm
05:15 PM 35.7°F2.1°C 32.5°F0.3°C 88% Calm Calm -- 30.09 in1019.0 mb 0.00 in0.0 mm 0.00 in0.0 mm 1.20 in30.5 mm
05:20 PM 35.6°F2.0°C 32.2°F0.1°C 87% Calm Calm -- 30.09 in1019.0 mb 0.00 in0.0 mm 0.00 in0.0 mm 1.20 in30.5 mm
05:25 PM 35.6°F2.0°C 32.2°F0.1°C 87% Calm Calm -- 30.09 in1019.0 mb 0.00 in0.0 mm 0.00 in0.0 mm 1.20 in30.5 mm
05:30 PM 35.6°F2.0°C 31.8°F-0.1°C 86% Calm Calm -- 30.10 in1019.3 mb 0.00 in0.0 mm 0.00 in0.0 mm 1.20 in30.5 mm
05:35 PM 35.6°F2.0°C 31.8°F-0.1°C 86% Calm Calm -- 30.10 in1019.3 mb 0.00 in0.0 mm 0.00 in0.0 mm 1.20 in30.5 mm
05:40 PM 35.6°F2.0°C 31.8°F-0.1°C 86% Calm Calm -- 30.10 in1019.3 mb 0.00 in0.0 mm 0.00 in0.0 mm 1.20 in30.5 mm
05:45 PM 35.6°F2.0°C 31.8°F-0.1°C 86% Calm Calm -- 30.11 in1019.6 mb 0.00 in0.0 mm 0.00 in0.0 mm 1.20 in30.5 mm
05:50 PM 35.7°F2.1°C 31.6°F-0.2°C 85% Calm Calm -- 30.11 in1019.6 mb 0.00 in0.0 mm 0.00 in0.0 mm 1.20 in30.5 mm
05:55 PM 35.7°F2.1°C 31.1°F-0.5°C 83% Calm Calm -- 30.11 in1019.6 mb 0.00 in0.0 mm 0.00 in0.0 mm 1.20 in30.5 mm
06:00 PM 35.8°F2.1°C 30.9°F-0.6°C 82% Calm Calm -- 30.12 in1020.0 mb 0.00 in0.0 mm 0.00 in0.0 mm 1.20 in30.5 mm
06:05 PM 35.7°F2.1°C 30.9°F-0.6°C 82% Calm Calm -- 30.12 in1020.0 mb 0.00 in0.0 mm 0.00 in0.0 mm 1.20 in30.5 mm
06:10 PM 35.7°F2.1°C 30.9°F-0.6°C 82% Calm Calm -- 30.12 in1020.0 mb 0.00 in0.0 mm 0.00 in0.0 mm 1.20 in30.5 mm
06:15 PM 35.6°F2.0°C 30.9°F-0.6°C 83% Calm Calm -- 30.13 in1020.3 mb 0.00 in0.0 mm 0.00 in0.0 mm 1.20 in30.5 mm
06:20 PM 35.5°F1.9°C 30.2°F-1.0°C 81% Calm Calm -- 30.13 in1020.3 mb 0.00 in0.0 mm 0.00 in0.0 mm 1.20 in30.5 mm
06:25 PM 35.4°F1.9°C 29.5°F-1.4°C 79% Calm Calm -- 30.13 in1020.3 mb 0.00 in0.0 mm 0.00 in0.0 mm 1.20 in30.5 mm
06:30 PM 35.4°F1.9°C 29.5°F-1.4°C 79% Calm Calm -- 30.14 in1020.7 mb 0.00 in0.0 mm 0.00 in0.0 mm 1.20 in30.5 mm
06:35 PM 35.3°F1.8°C 29.5°F-1.4°C 79% Calm Calm -- 30.14 in1020.7 mb 0.00 in0.0 mm 0.00 in0.0 mm 1.20 in30.5 mm
06:40 PM 35.2°F1.8°C 29.1°F-1.6°C 78% Calm Calm -- 30.14 in1020.7 mb 0.00 in0.0 mm 0.00 in0.0 mm 1.20 in30.5 mm
06:45 PM 35.2°F1.8°C 28.8°F-1.8°C 77% Calm Calm -- 30.14 in1020.7 mb 0.00 in0.0 mm 0.00 in0.0 mm 1.20 in30.5 mm
06:50 PM 35.2°F1.8°C 28.8°F-1.8°C 77% Calm Calm -- 30.15 in1021.0 mb 0.00 in0.0 mm 0.00 in0.0 mm 1.20 in30.5 mm
06:55 PM 35.1°F1.7°C 28.2°F-2.1°C 76% Calm Calm -- 30.15 in1021.0 mb 0.00 in0.0 mm 0.00 in0.0 mm 1.20 in30.5 mm
07:00 PM 35.0°F1.7°C 27.9°F-2.3°C 75% Calm Calm -- 30.15 in1021.0 mb 0.00 in0.0 mm 0.00 in0.0 mm 1.20 in30.5 mm
07:05 PM 35.0°F1.7°C 27.7°F-2.4°C 74% Calm Calm -- 30.16 in1021.3 mb 0.00 in0.0 mm 0.00 in0.0 mm 1.20 in30.5 mm
07:10 PM 34.9°F1.6°C 27.5°F-2.5°C 74% Calm Calm -- 30.16 in1021.3 mb 0.00 in0.0 mm 0.00 in0.0 mm 1.20 in30.5 mm
07:15 PM 34.8°F1.6°C 27.5°F-2.5°C 74% Calm Calm -- 30.16 in1021.3 mb 0.00 in0.0 mm 0.00 in0.0 mm 1.20 in30.5 mm
07:20 PM 34.8°F1.6°C 27.5°F-2.5°C 74% Calm Calm -- 30.16 in1021.3 mb 0.00 in0.0 mm 0.00 in0.0 mm 1.20 in30.5 mm
07:25 PM 34.7°F1.5°C 27.3°F-2.6°C 74% Calm Calm -- 30.17 in1021.7 mb 0.00 in0.0 mm 0.00 in0.0 mm 1.20 in30.5 mm
07:30 PM 34.7°F1.5°C 27.3°F-2.6°C 74% Calm Calm -- 30.17 in1021.7 mb 0.00 in0.0 mm 0.00 in0.0 mm 1.20 in30.5 mm
07:35 PM 34.6°F1.4°C 26.8°F-2.9°C 73% Calm Calm -- 30.17 in1021.7 mb 0.00 in0.0 mm 0.00 in0.0 mm 1.20 in30.5 mm
07:40 PM 34.5°F1.4°C 27.1°F-2.7°C 74% Calm Calm -- 30.18 in1022.0 mb 0.00 in0.0 mm 0.00 in0.0 mm 1.20 in30.5 mm
07:45 PM 34.3°F1.3°C 27.0°F-2.8°C 74% Calm Calm -- 30.18 in1022.0 mb 0.00 in0.0 mm 0.00 in0.0 mm 1.20 in30.5 mm
07:50 PM 34.2°F1.2°C 26.8°F-2.9°C 74% Calm Calm -- 30.18 in1022.0 mb 0.00 in0.0 mm 0.00 in0.0 mm 1.20 in30.5 mm
07:55 PM 34.0°F1.1°C 27.0°F-2.8°C 75% Calm Calm -- 30.19 in1022.4 mb 0.00 in0.0 mm 0.00 in0.0 mm 1.20 in30.5 mm
08:00 PM 33.9°F1.1°C 27.0°F-2.8°C 75% Calm Calm -- 30.20 in1022.7 mb 0.00 in0.0 mm 0.00 in0.0 mm 1.20 in30.5 mm
08:05 PM 33.8°F1.0°C 26.8°F-2.9°C 75% Calm Calm -- 30.20 in1022.7 mb 0.00 in0.0 mm 0.00 in0.0 mm 1.20 in30.5 mm
08:10 PM 33.7°F0.9°C 26.6°F-3.0°C 75% Calm Calm -- 30.20 in1022.7 mb 0.00 in0.0 mm 0.00 in0.0 mm 1.20 in30.5 mm
08:15 PM 33.5°F0.8°C 26.4°F-3.1°C 75% Calm Calm -- 30.20 in1022.7 mb 0.00 in0.0 mm 0.00 in0.0 mm 1.20 in30.5 mm
08:20 PM 33.5°F0.8°C 26.4°F-3.1°C 75% Calm Calm -- 30.20 in1022.7 mb 0.00 in0.0 mm 0.00 in0.0 mm 1.20 in30.5 mm
08:25 PM 33.4°F0.8°C 26.4°F-3.1°C 75% Calm Calm -- 30.21 in1023.0 mb 0.00 in0.0 mm 0.00 in0.0 mm 1.20 in30.5 mm
08:30 PM 33.3°F0.7°C 26.6°F-3.0°C 76% Calm Calm -- 30.21 in1023.0 mb 0.00 in0.0 mm 0.00 in0.0 mm 1.20 in30.5 mm
08:35 PM 33.1°F0.6°C 26.4°F-3.1°C 76% Calm Calm -- 30.21 in1023.0 mb 0.00 in0.0 mm 0.00 in0.0 mm 1.20 in30.5 mm
08:40 PM 32.9°F0.5°C 26.2°F-3.2°C 76% Calm Calm -- 30.21 in1023.0 mb 0.00 in0.0 mm 0.00 in0.0 mm 1.20 in30.5 mm
08:45 PM 32.7°F0.4°C 26.1°F-3.3°C 76% Calm Calm -- 30.21 in1023.0 mb 0.00 in0.0 mm 0.00 in0.0 mm 1.20 in30.5 mm
08:50 PM 32.5°F0.3°C 26.1°F-3.3°C 77% Calm Calm -- 30.21 in1023.0 mb 0.00 in0.0 mm 0.00 in0.0 mm 1.20 in30.5 mm
08:55 PM 32.4°F0.2°C 26.1°F-3.3°C 77% Calm Calm -- 30.22 in1023.4 mb 0.00 in0.0 mm 0.00 in0.0 mm 1.20 in30.5 mm
09:00 PM 32.3°F0.2°C 26.1°F-3.3°C 77% Calm Calm -- 30.22 in1023.4 mb 0.00 in0.0 mm 0.00 in0.0 mm 1.20 in30.5 mm
09:05 PM 32.2°F0.1°C 25.5°F-3.6°C 76% Calm Calm -- 30.22 in1023.4 mb 0.00 in0.0 mm 0.00 in0.0 mm 1.20 in30.5 mm
09:10 PM 32.2°F0.1°C 25.9°F-3.4°C 77% Calm Calm -- 30.22 in1023.4 mb 0.00 in0.0 mm 0.00 in0.0 mm 1.20 in30.5 mm
09:15 PM 32.1°F0.1°C 25.9°F-3.4°C 77% Calm Calm -- 30.22 in1023.4 mb 0.00 in0.0 mm 0.00 in0.0 mm 1.20 in30.5 mm
09:20 PM 32.0°F0.0°C 25.7°F-3.5°C 77% Calm Calm -- 30.22 in1023.4 mb 0.00 in0.0 mm 0.00 in0.0 mm 1.20 in30.5 mm
09:25 PM 32.0°F0.0°C 25.7°F-3.5°C 77% Calm Calm -- 30.22 in1023.4 mb 0.00 in0.0 mm 0.00 in0.0 mm 1.20 in30.5 mm
09:30 PM 32.0°F0.0°C 25.7°F-3.5°C 77% Calm Calm -- 30.22 in1023.4 mb 0.00 in0.0 mm 0.00 in0.0 mm 1.20 in30.5 mm
09:35 PM 31.9°F-0.1°C 25.5°F-3.6°C 77% Calm Calm -- 30.23 in1023.7 mb 0.00 in0.0 mm 0.00 in0.0 mm 1.20 in30.5 mm
09:40 PM 31.8°F-0.1°C 25.5°F-3.6°C 77% Calm Calm -- 30.23 in1023.7 mb 0.00 in0.0 mm 0.00 in0.0 mm 1.20 in30.5 mm
09:45 PM 31.7°F-0.2°C 25.3°F-3.7°C 77% Calm Calm -- 30.23 in1023.7 mb 0.00 in0.0 mm 0.00 in0.0 mm 1.20 in30.5 mm
09:50 PM 31.7°F-0.2°C 25.5°F-3.6°C 78% Calm Calm -- 30.23 in1023.7 mb 0.00 in0.0 mm 0.00 in0.0 mm 1.20 in30.5 mm
09:55 PM 31.7°F-0.2°C 25.5°F-3.6°C 78% Calm Calm -- 30.23 in1023.7 mb 0.00 in0.0 mm 0.00 in0.0 mm 1.20 in30.5 mm
10:00 PM 31.7°F-0.2°C 25.5°F-3.6°C 78% Calm Calm -- 30.23 in1023.7 mb 0.00 in0.0 mm 0.00 in0.0 mm 1.20 in30.5 mm
10:05 PM 31.7°F-0.2°C 25.3°F-3.7°C 77% Calm Calm -- 30.23 in1023.7 mb 0.00 in0.0 mm 0.00 in0.0 mm 1.20 in30.5 mm
10:10 PM 31.7°F-0.2°C 25.3°F-3.7°C 77% Calm Calm -- 30.23 in1023.7 mb 0.00 in0.0 mm 0.00 in0.0 mm 1.20 in30.5 mm
10:15 PM 31.7°F-0.2°C 25.0°F-3.9°C 76% Calm Calm -- 30.23 in1023.7 mb 0.00 in0.0 mm 0.00 in0.0 mm 1.20 in30.5 mm
10:20 PM 31.6°F-0.2°C 25.0°F-3.9°C 76% Calm Calm -- 30.23 in1023.7 mb 0.00 in0.0 mm 0.00 in0.0 mm 1.20 in30.5 mm
10:25 PM 31.6°F-0.2°C 25.0°F-3.9°C 76% Calm Calm -- 30.24 in1024.0 mb 0.00 in0.0 mm 0.00 in0.0 mm 1.20 in30.5 mm
10:30 PM 31.6°F-0.2°C 24.6°F-4.1°C 75% Calm Calm -- 30.24 in1024.0 mb 0.00 in0.0 mm 0.00 in0.0 mm 1.20 in30.5 mm
10:35 PM 31.6°F-0.2°C 24.6°F-4.1°C 75% Calm Calm -- 30.24 in1024.0 mb 0.00 in0.0 mm 0.00 in0.0 mm 1.20 in30.5 mm
10:40 PM 31.6°F-0.2°C 24.6°F-4.1°C 75% Calm Calm -- 30.24 in1024.0 mb 0.00 in0.0 mm 0.00 in0.0 mm 1.20 in30.5 mm
10:45 PM 31.5°F-0.3°C 24.4°F-4.2°C 75% Calm Calm -- 30.24 in1024.0 mb 0.00 in0.0 mm 0.00 in0.0 mm 1.20 in30.5 mm
10:50 PM 31.4°F-0.3°C 24.4°F-4.2°C 75% Calm Calm -- 30.24 in1024.0 mb 0.00 in0.0 mm 0.00 in0.0 mm 1.20 in30.5 mm
10:55 PM 31.4°F-0.3°C 24.4°F-4.2°C 75% Calm Calm -- 30.25 in1024.4 mb 0.00 in0.0 mm 0.00 in0.0 mm 1.20 in30.5 mm
11:00 PM 31.4°F-0.3°C 24.4°F-4.2°C 75% Calm Calm -- 30.25 in1024.4 mb 0.00 in0.0 mm 0.00 in0.0 mm 0.28 in7.1 mm
11:05 PM 31.4°F-0.3°C 24.4°F-4.2°C 75% Calm Calm -- 30.25 in1024.4 mb 0.00 in0.0 mm 0.00 in0.0 mm 0.28 in7.1 mm
11:10 PM 31.4°F-0.3°C 24.4°F-4.2°C 75% Calm Calm -- 30.25 in1024.4 mb 0.00 in0.0 mm 0.00 in0.0 mm 0.28 in7.1 mm
11:15 PM 31.4°F-0.3°C 24.4°F-4.2°C 75% Calm Calm -- 30.25 in1024.4 mb 0.00 in0.0 mm 0.00 in0.0 mm 0.28 in7.1 mm
11:20 PM 31.3°F-0.4°C 24.6°F-4.1°C 76% Calm Calm -- 30.25 in1024.4 mb 0.00 in0.0 mm 0.00 in0.0 mm 0.28 in7.1 mm
11:25 PM 31.2°F-0.4°C 24.6°F-4.1°C 76% Calm Calm -- 30.25 in1024.4 mb 0.00 in0.0 mm 0.00 in0.0 mm 0.28 in7.1 mm
11:30 PM 31.1°F-0.5°C 24.4°F-4.2°C 76% Calm Calm -- 30.25 in1024.4 mb 0.00 in0.0 mm 0.00 in0.0 mm 0.28 in7.1 mm
11:35 PM 31.0°F-0.6°C 24.3°F-4.3°C 76% Calm Calm -- 30.26 in1024.7 mb 0.00 in0.0 mm 0.00 in0.0 mm 0.28 in7.1 mm
11:40 PM 31.0°F-0.6°C 23.9°F-4.5°C 75% Calm Calm -- 30.26 in1024.7 mb 0.00 in0.0 mm 0.00 in0.0 mm 0.28 in7.1 mm
11:45 PM 31.0°F-0.6°C 23.9°F-4.5°C 75% Calm Calm -- 30.26 in1024.7 mb 0.00 in0.0 mm 0.00 in0.0 mm 0.28 in7.1 mm
11:50 PM 31.0°F-0.6°C 23.9°F-4.5°C 75% Calm Calm -- 30.26 in1024.7 mb 0.00 in0.0 mm 0.00 in0.0 mm 0.28 in7.1 mm
11:55 PM 31.0°F-0.6°C 23.9°F-4.5°C 75% Calm Calm -- 30.26 in1024.7 mb 0.00 in0.0 mm 0.00 in0.0 mm 0.28 in7.1 mm